createdAt,value
2019-02-19T00:07:28.921Z,2.20
2019-02-19T00:17:30.413Z,2.20
2019-02-19T00:27:32.838Z,2.10
2019-02-19T00:37:34.253Z,1.90
2019-02-19T00:47:35.689Z,1.70
2019-02-19T00:57:37.150Z,1.50
2019-02-19T01:07:38.653Z,1.50
2019-02-19T01:17:40.114Z,1.40
2019-02-19T01:27:42.404Z,1.10
2019-02-19T01:37:43.700Z,1.10
2019-02-19T01:47:45.139Z,1.10
2019-02-19T01:57:46.596Z,1.10
2019-02-19T02:07:48.050Z,1.10
2019-02-19T02:17:49.576Z,1.10
2019-02-19T02:27:52.969Z,1.20
2019-02-19T02:37:54.386Z,1.30
2019-02-19T02:47:55.805Z,1.20
2019-02-19T02:57:57.252Z,1.10
2019-02-19T03:08:00.500Z,1.30
2019-02-19T03:18:02.097Z,2.00
2019-02-19T03:28:04.526Z,2.40
2019-02-19T03:38:06.045Z,2.20
2019-02-19T03:48:07.592Z,2.10
2019-02-19T03:58:09.046Z,2.30
2019-02-19T04:08:10.484Z,1.80
2019-02-19T04:18:12.066Z,1.50
2019-02-19T04:28:15.361Z,1.20
2019-02-19T04:38:16.812Z,1.10
2019-02-19T04:48:18.256Z,0.90
2019-02-19T04:58:20.057Z,0.80
2019-02-19T05:08:21.502Z,0.80
2019-02-19T05:18:23.085Z,0.80
2019-02-19T05:28:25.665Z,0.80
2019-02-19T05:38:27.037Z,0.70
2019-02-19T05:48:28.468Z,0.60
2019-02-19T05:58:29.824Z,0.50
2019-02-19T06:08:31.166Z,0.60
2019-02-19T06:18:32.544Z,0.60
2019-02-19T06:28:35.064Z,1.20
2019-02-19T06:38:36.469Z,2.10
2019-02-19T06:48:37.789Z,4.70
2019-02-19T06:58:39.436Z,9.20
2019-02-19T07:08:40.872Z,11.00
2019-02-19T07:18:42.348Z,11.90
2019-02-19T07:28:45.604Z,12.90
2019-02-19T07:38:46.972Z,12.30
2019-02-19T07:48:48.293Z,14.80
2019-02-19T07:58:49.781Z,17.80
2019-02-19T08:08:52.827Z,18.20
2019-02-19T08:18:54.262Z,19.30
2019-02-19T08:39:44.061Z,20.90
2019-02-19T08:49:45.360Z,22.80
2019-02-19T08:59:46.797Z,23.10
2019-02-19T09:09:49.015Z,23.50
2019-02-19T09:19:50.595Z,24.00
2019-02-19T09:29:52.120Z,24.80
2019-02-19T09:50:41.680Z,23.90
2019-02-19T10:00:43.012Z,23.10
2019-02-19T10:10:44.357Z,22.50
2019-02-19T10:20:45.750Z,21.00
2019-02-19T10:30:47.280Z,20.80
2019-02-19T10:40:48.638Z,20.90
2019-02-19T10:50:51.829Z,21.60
2019-02-19T11:00:53.333Z,18.40
2019-02-19T11:10:54.768Z,16.30
2019-02-19T11:20:56.250Z,15.40
2019-02-19T11:30:57.822Z,15.00
2019-02-19T11:40:59.232Z,14.60
2019-02-19T11:51:01.741Z,14.70
2019-02-19T12:01:04.261Z,14.40
2019-02-19T12:11:05.698Z,14.40
2019-02-19T12:21:07.260Z,13.90
2019-02-19T12:31:08.696Z,14.20
2019-02-19T12:41:10.174Z,14.10
2019-02-19T12:51:12.529Z,13.90
2019-02-19T13:01:13.952Z,13.80
2019-02-19T13:11:15.396Z,13.80
2019-02-19T13:21:16.881Z,13.60
2019-02-19T13:31:18.426Z,13.70
2019-02-19T13:41:19.848Z,13.60
2019-02-19T13:51:23.169Z,13.60
2019-02-19T14:01:24.664Z,13.70
2019-02-19T14:11:26.213Z,13.80
2019-02-19T14:21:46.273Z,13.60
2019-02-19T14:32:06.353Z,13.50
2019-02-19T14:42:09.717Z,13.10
2019-02-19T14:52:30.821Z,12.80
2019-02-19T15:02:39.866Z,12.40
2019-02-19T15:12:52.297Z,11.90
2019-02-19T15:23:01.930Z,11.40
2019-02-19T15:33:06.846Z,11.00
2019-02-19T15:43:27.132Z,10.60
2019-02-19T15:53:31.917Z,10.30
2019-02-19T16:03:35.333Z,9.90
2019-02-19T16:13:46.279Z,9.80
2019-02-19T16:23:55.833Z,9.50
2019-02-19T16:34:02.969Z,9.20
2019-02-19T16:44:24.733Z,9.20
2019-02-19T16:54:44.529Z,9.00
2019-02-19T17:05:04.853Z,8.90
2019-02-19T17:15:26.760Z,8.70
2019-02-19T17:25:30.065Z,8.60
2019-02-19T17:35:48.558Z,8.40
2019-02-19T17:46:07.276Z,8.30
2019-02-19T17:56:17.741Z,8.10
2019-02-19T18:06:33.418Z,8.10
2019-02-19T18:16:36.764Z,8.00
2019-02-19T18:26:38.069Z,8.00
2019-02-19T18:36:39.557Z,7.90
2019-02-19T18:46:41.129Z,7.80
2019-02-19T18:56:43.617Z,7.60
2019-02-19T19:06:45.128Z,7.60
2019-02-19T19:16:46.689Z,7.80
2019-02-19T19:26:48.174Z,8.00
2019-02-19T19:36:50.162Z,8.10
2019-02-19T19:46:51.662Z,8.10
2019-02-19T19:56:54.650Z,8.30
2019-02-19T20:06:56.089Z,8.50
2019-02-19T20:16:57.536Z,8.70
2019-02-19T20:26:59.356Z,8.70
2019-02-19T20:37:01.205Z,8.80
2019-02-19T20:47:02.891Z,8.40
2019-02-19T20:57:06.932Z,8.00
2019-02-19T21:07:08.437Z,7.70
2019-02-19T21:17:10.052Z,7.40
2019-02-19T21:27:11.568Z,7.10
2019-02-19T21:37:13.137Z,6.90
2019-02-19T21:47:14.620Z,7.00
2019-02-19T21:57:17.504Z,6.90
2019-02-19T22:07:19.081Z,6.70
2019-02-19T22:17:20.585Z,6.60
2019-02-19T22:27:21.985Z,6.40
2019-02-19T22:37:23.524Z,6.40
2019-02-19T22:47:24.961Z,6.40
2019-02-19T22:57:27.385Z,6.40
2019-02-19T23:07:28.849Z,6.50
2019-02-19T23:17:31.153Z,6.40
2019-02-19T23:27:32.543Z,6.30
2019-02-19T23:37:34.102Z,6.30
2019-02-19T23:47:35.520Z,6.30
2019-02-19T23:57:37.937Z,6.30
